createdAt,value
2023-02-22T00:02:11.451Z,20.73
2023-02-22T00:04:42.003Z,21.13
2023-02-22T00:07:09.285Z,22.00
2023-02-22T00:09:36.520Z,22.47
2023-02-22T00:12:03.833Z,21.83
2023-02-22T00:14:31.101Z,22.63
2023-02-22T00:16:59.770Z,22.53
2023-02-22T00:19:30.190Z,23.90
2023-02-22T00:21:58.088Z,22.73
2023-02-22T00:24:25.922Z,23.17
2023-02-22T00:26:57.633Z,23.77
2023-02-22T00:29:25.444Z,24.73
2023-02-22T00:31:53.095Z,24.93
2023-02-22T00:34:20.326Z,25.40
2023-02-22T00:36:50.989Z,26.13
2023-02-22T00:39:18.250Z,26.27
2023-02-22T00:41:45.843Z,25.00
2023-02-22T00:44:13.035Z,25.07
2023-02-22T00:46:40.141Z,26.40
2023-02-22T00:49:07.273Z,25.50
2023-02-22T00:51:34.361Z,26.07
2023-02-22T00:54:01.948Z,23.67
2023-02-22T00:56:29.138Z,25.20
2023-02-22T00:58:56.195Z,27.77
2023-02-22T01:01:24.173Z,30.00
2023-02-22T01:03:51.692Z,29.60
2023-02-22T01:06:19.443Z,28.70
2023-02-22T01:08:48.541Z,27.00
2023-02-22T01:11:17.489Z,29.13
2023-02-22T01:13:47.765Z,24.77
2023-02-22T01:16:15.106Z,30.30
2023-02-22T01:18:42.106Z,28.63
2023-02-22T01:21:09.201Z,28.73
2023-02-22T01:23:36.433Z,31.07
2023-02-22T01:26:05.946Z,35.87
2023-02-22T01:28:33.928Z,33.53
2023-02-22T01:31:01.673Z,32.30
2023-02-22T01:33:29.112Z,28.37
2023-02-22T01:35:56.325Z,28.43
2023-02-22T01:38:23.604Z,22.10
2023-02-22T01:40:52.012Z,27.10
2023-02-22T01:43:30.746Z,32.30
2023-02-22T01:46:26.075Z,27.57
2023-02-22T01:49:06.283Z,28.27
2023-02-22T01:51:45.109Z,27.03
2023-02-22T01:54:33.347Z,30.37
2023-02-22T01:57:07.307Z,28.10
2023-02-22T01:59:40.268Z,29.03
2023-02-22T02:02:07.416Z,28.90
2023-02-22T02:04:36.349Z,30.20
2023-02-22T02:07:07.787Z,30.70
2023-02-22T02:09:50.732Z,27.67
2023-02-22T02:12:19.818Z,35.73
2023-02-22T02:14:47.339Z,24.07
2023-02-22T02:17:19.049Z,23.53
2023-02-22T02:19:51.936Z,28.77
2023-02-22T02:22:52.455Z,28.60
2023-02-22T02:26:00.561Z,26.67
2023-02-22T02:29:11.698Z,22.27
2023-02-22T02:32:16.614Z,20.80
2023-02-22T02:34:58.992Z,26.57
2023-02-22T02:37:37.544Z,28.27
2023-02-22T02:40:13.313Z,23.17
2023-02-22T02:43:16.366Z,24.40
2023-02-22T02:45:56.659Z,21.83
2023-02-22T02:48:28.321Z,23.57
2023-02-22T02:51:00.160Z,25.70
2023-02-22T02:53:35.970Z,26.70
2023-02-22T02:56:03.620Z,25.93
2023-02-22T02:58:30.843Z,24.77
2023-02-22T03:01:04.474Z,27.70
2023-02-22T03:03:49.544Z,23.33
2023-02-22T03:06:32.712Z,28.20
2023-02-22T03:09:24.739Z,22.63
2023-02-22T03:12:06.210Z,26.27
2023-02-22T03:14:55.902Z,25.20
2023-02-22T03:17:36.945Z,23.37
2023-02-22T03:20:56.781Z,28.90
2023-02-22T03:23:44.958Z,29.47
2023-02-22T03:26:23.960Z,25.40
2023-02-22T03:28:55.831Z,27.07
2023-02-22T03:31:29.245Z,27.43
2023-02-22T03:34:02.771Z,29.73
2023-02-22T03:36:39.131Z,29.87
2023-02-22T03:39:12.268Z,23.33
2023-02-22T03:41:40.566Z,22.17
2023-02-22T03:44:18.703Z,24.97
2023-02-22T03:46:48.793Z,25.33
2023-02-22T03:49:51.433Z,22.60
2023-02-22T03:52:19.925Z,25.47
2023-02-22T03:54:47.680Z,22.37
2023-02-22T03:57:38.149Z,26.80
2023-02-22T04:00:10.244Z,21.77
2023-02-22T04:02:37.808Z,27.37
2023-02-22T04:05:05.760Z,26.63
2023-02-22T04:07:32.872Z,25.00
2023-02-22T04:10:02.531Z,23.40
2023-02-22T04:12:29.741Z,25.83
2023-02-22T04:14:56.808Z,25.70
2023-02-22T04:17:24.052Z,24.33
2023-02-22T04:19:51.467Z,27.40
2023-02-22T04:22:18.882Z,21.57
2023-02-22T04:24:46.054Z,24.63
2023-02-22T04:27:13.141Z,22.10
2023-02-22T04:29:40.335Z,23.80
2023-02-22T04:32:08.361Z,23.70
2023-02-22T04:34:35.460Z,20.40
2023-02-22T04:37:03.626Z,23.03
2023-02-22T04:39:30.804Z,25.17
2023-02-22T04:41:57.929Z,22.47
2023-02-22T04:44:25.390Z,25.60
2023-02-22T04:46:52.748Z,24.97
2023-02-22T04:49:20.068Z,24.80
2023-02-22T04:51:47.147Z,25.40
2023-02-22T04:54:14.203Z,27.23
2023-02-22T04:56:41.577Z,22.93
2023-02-22T04:59:08.724Z,24.53
2023-02-22T05:01:37.492Z,21.73
2023-02-22T05:04:06.709Z,23.97
2023-02-22T05:06:34.520Z,24.43
2023-02-22T05:09:01.517Z,23.20
2023-02-22T05:11:29.173Z,23.10
2023-02-22T05:13:56.505Z,21.83
2023-02-22T05:16:23.777Z,24.40
2023-02-22T05:18:50.796Z,22.97
2023-02-22T05:21:18.311Z,21.97
2023-02-22T05:23:45.729Z,23.90
2023-02-22T05:26:12.939Z,21.23
2023-02-22T05:28:40.018Z,21.33
2023-02-22T05:31:07.576Z,22.03
2023-02-22T05:33:34.760Z,22.80
2023-02-22T05:36:02.374Z,21.17
2023-02-22T05:38:29.527Z,20.53
2023-02-22T05:40:57.046Z,20.33
2023-02-22T05:43:24.137Z,20.93
2023-02-22T05:45:51.218Z,19.37
2023-02-22T05:48:18.318Z,18.80
2023-02-22T05:50:45.633Z,20.50
2023-02-22T05:53:12.771Z,21.00
2023-02-22T05:55:40.302Z,22.80
2023-02-22T05:58:07.368Z,23.90
2023-02-22T06:00:34.580Z,21.63
2023-02-22T06:03:06.039Z,25.10
2023-02-22T06:05:33.606Z,23.63
2023-02-22T06:08:02.267Z,24.27
2023-02-22T06:10:29.489Z,22.60
2023-02-22T06:12:57.495Z,19.20
2023-02-22T06:15:26.336Z,22.27
2023-02-22T06:17:55.714Z,19.80
2023-02-22T06:20:25.294Z,21.30
2023-02-22T06:22:55.294Z,21.27
2023-02-22T06:25:27.226Z,19.97
2023-02-22T06:27:54.340Z,20.63
2023-02-22T06:30:24.579Z,24.67
2023-02-22T06:32:51.949Z,23.60
2023-02-22T06:35:20.014Z,21.43
2023-02-22T06:37:47.585Z,20.00
2023-02-22T06:40:15.756Z,21.03
2023-02-22T06:42:43.249Z,19.73
2023-02-22T06:45:11.051Z,19.90
2023-02-22T06:47:41.837Z,21.53
2023-02-22T06:50:23.839Z,19.97
2023-02-22T06:52:51.449Z,18.63
2023-02-22T06:55:26.297Z,21.17
2023-02-22T06:57:53.468Z,19.20
2023-02-22T07:00:24.944Z,20.47
2023-02-22T07:02:53.228Z,19.00
2023-02-22T07:05:22.846Z,20.80
2023-02-22T07:07:52.816Z,21.60
2023-02-22T07:10:30.022Z,20.67
2023-02-22T07:12:57.060Z,18.37
2023-02-22T07:15:28.148Z,19.03
2023-02-22T07:17:55.961Z,17.93
2023-02-22T07:20:25.758Z,17.83
2023-02-22T07:22:53.290Z,19.47
2023-02-22T07:25:22.866Z,17.77
2023-02-22T07:27:49.884Z,17.07
2023-02-22T07:30:30.670Z,16.83
2023-02-22T07:33:02.200Z,15.63
2023-02-22T07:35:38.397Z,16.40
2023-02-22T07:38:10.852Z,16.37
2023-02-22T07:40:39.315Z,16.10
2023-02-22T07:43:31.160Z,17.60
2023-02-22T07:46:01.901Z,16.23
2023-02-22T07:48:31.360Z,15.60
2023-02-22T07:50:59.207Z,15.47
2023-02-22T07:53:33.498Z,16.20
2023-02-22T07:56:05.786Z,16.20
2023-02-22T07:58:33.708Z,16.13
2023-02-22T08:01:03.968Z,16.00
2023-02-22T08:03:47.432Z,16.10
2023-02-22T08:06:27.027Z,15.17
2023-02-22T08:08:54.151Z,15.90
2023-02-22T08:11:21.561Z,16.10
2023-02-22T08:13:48.798Z,16.47
2023-02-22T08:16:15.926Z,17.07
2023-02-22T08:18:43.256Z,16.80
2023-02-22T08:21:10.685Z,16.40
2023-02-22T08:23:38.933Z,16.73
2023-02-22T08:26:18.554Z,16.53
2023-02-22T08:28:45.542Z,15.67
2023-02-22T08:31:12.660Z,17.50
2023-02-22T08:33:39.801Z,16.03
2023-02-22T08:36:07.435Z,15.50
2023-02-22T08:38:34.824Z,16.20
2023-02-22T08:41:01.914Z,17.30
2023-02-22T08:43:29.130Z,15.97
2023-02-22T08:45:57.673Z,15.87
2023-02-22T08:48:25.318Z,15.77
2023-02-22T08:50:52.664Z,15.93
2023-02-22T08:53:19.873Z,16.20
2023-02-22T08:55:47.086Z,13.83
2023-02-22T08:58:14.437Z,14.23
2023-02-22T09:00:44.784Z,15.53
2023-02-22T09:03:14.736Z,14.87
2023-02-22T09:05:43.795Z,14.40
2023-02-22T09:08:11.162Z,14.70
2023-02-22T09:10:39.175Z,15.40
2023-02-22T09:13:06.628Z,14.93
2023-02-22T09:15:37.761Z,14.60
2023-02-22T09:18:10.495Z,14.53
2023-02-22T09:20:37.693Z,14.60
2023-02-22T09:23:06.612Z,13.30
2023-02-22T09:25:34.366Z,14.17
2023-02-22T09:28:01.789Z,13.33
2023-02-22T09:30:33.017Z,13.50
2023-02-22T09:33:10.643Z,13.75
2023-02-22T09:35:42.624Z,13.17
2023-02-22T09:38:11.854Z,12.68
2023-02-22T09:40:47.676Z,12.83
2023-02-22T09:43:40.991Z,12.82
2023-02-22T09:46:19.418Z,13.13
2023-02-22T09:49:03.283Z,11.93
2023-02-22T09:52:06.204Z,12.77
2023-02-22T09:54:45.515Z,11.40
2023-02-22T09:57:19.838Z,11.40
2023-02-22T10:00:13.240Z,11.75
2023-02-22T10:02:52.893Z,11.13
2023-02-22T10:05:56.940Z,10.95
2023-02-22T10:08:31.629Z,11.00
2023-02-22T10:11:43.613Z,10.18
2023-02-22T10:14:42.960Z,10.73
2023-02-22T10:17:45.326Z,11.60
2023-02-22T10:20:55.866Z,10.48
2023-02-22T10:23:37.260Z,10.30
2023-02-22T10:26:22.475Z,9.80
2023-02-22T10:29:01.283Z,9.95
2023-02-22T10:31:36.498Z,9.32
2023-02-22T10:34:23.636Z,9.45
2023-02-22T10:36:59.819Z,9.35
2023-02-22T10:39:38.951Z,8.82
2023-02-22T10:42:09.320Z,9.10
2023-02-22T10:44:38.404Z,10.57
2023-02-22T10:47:17.578Z,9.80
2023-02-22T10:49:51.900Z,9.32
2023-02-22T10:52:32.011Z,9.15
2023-02-22T10:55:14.206Z,9.38
2023-02-22T10:57:49.739Z,9.75
2023-02-22T11:00:39.781Z,10.23
2023-02-22T11:03:21.207Z,9.18
2023-02-22T11:05:49.510Z,8.90
2023-02-22T11:08:29.300Z,9.90
2023-02-22T11:11:01.677Z,9.05
2023-02-22T11:13:39.030Z,9.00
2023-02-22T11:16:32.636Z,8.48
2023-02-22T11:19:23.136Z,8.30
2023-02-22T11:21:59.778Z,9.35
2023-02-22T11:24:47.449Z,8.63
2023-02-22T11:27:47.094Z,8.50
2023-02-22T11:30:25.597Z,7.50
2023-02-22T11:33:32.642Z,8.05
2023-02-22T11:36:05.892Z,7.70
2023-02-22T11:38:39.191Z,7.45
2023-02-22T11:41:16.221Z,7.80
2023-02-22T11:43:49.155Z,7.80
2023-02-22T11:46:34.459Z,7.90
2023-02-22T11:49:12.948Z,7.93
2023-02-22T11:52:34.970Z,7.90
2023-02-22T11:55:42.419Z,8.85
2023-02-22T11:58:50.652Z,7.80
2023-02-22T12:01:51.430Z,7.85
2023-02-22T12:05:01.215Z,8.45
2023-02-22T12:07:56.606Z,7.80
2023-02-22T12:10:56.724Z,8.57
2023-02-22T12:13:55.039Z,8.55
2023-02-22T12:16:33.079Z,7.65
2023-02-22T12:19:14.883Z,8.43
2023-02-22T12:21:48.634Z,8.77
2023-02-22T12:24:30.404Z,8.60
2023-02-22T12:27:06.880Z,9.23
2023-02-22T12:30:07.105Z,9.43
2023-02-22T12:32:49.429Z,8.82
2023-02-22T12:35:34.991Z,8.52
2023-02-22T12:38:23.883Z,9.00
2023-02-22T12:41:18.813Z,8.75
2023-02-22T12:44:14.554Z,9.05
2023-02-22T12:46:52.744Z,9.05
2023-02-22T12:49:37.913Z,9.70
2023-02-22T12:52:40.238Z,10.00
2023-02-22T12:55:13.463Z,10.07
2023-02-22T12:57:48.092Z,10.60
2023-02-22T13:00:27.990Z,10.68
2023-02-22T13:03:29.285Z,11.40
2023-02-22T13:06:53.925Z,11.52
2023-02-22T13:09:58.034Z,10.93
2023-02-22T13:12:31.090Z,11.68
2023-02-22T13:15:14.065Z,10.98
2023-02-22T13:18:13.002Z,11.50
2023-02-22T13:20:54.361Z,11.85
2023-02-22T13:23:50.524Z,11.05
2023-02-22T13:26:38.083Z,12.10
2023-02-22T13:29:34.981Z,11.43
2023-02-22T13:32:47.019Z,11.25
2023-02-22T13:35:55.166Z,10.65
2023-02-22T13:39:13.992Z,10.77
2023-02-22T13:41:55.586Z,11.77
2023-02-22T13:44:50.332Z,11.77
2023-02-22T13:47:39.718Z,10.90
2023-02-22T13:50:51.939Z,11.55
2023-02-22T13:53:48.092Z,11.35
2023-02-22T13:56:16.635Z,12.27
2023-02-22T13:58:59.379Z,12.25
2023-02-22T14:01:47.735Z,11.38
2023-02-22T14:04:26.856Z,12.60
2023-02-22T14:06:55.993Z,12.25
2023-02-22T14:09:49.839Z,12.40
2023-02-22T14:12:34.838Z,12.93
2023-02-22T14:15:29.837Z,12.98
2023-02-22T14:17:57.200Z,12.07
2023-02-22T14:20:36.249Z,13.50
2023-02-22T14:23:34.904Z,12.57
2023-02-22T14:26:26.838Z,13.23
2023-02-22T14:28:58.590Z,12.57
2023-02-22T14:31:46.464Z,14.05
2023-02-22T14:34:22.303Z,13.15
2023-02-22T14:37:08.545Z,14.35
2023-02-22T14:39:52.997Z,14.70
2023-02-22T14:42:27.357Z,13.88
2023-02-22T14:45:12.584Z,13.95
2023-02-22T14:48:01.083Z,12.93
2023-02-22T14:50:40.592Z,13.90
2023-02-22T14:53:24.029Z,13.75
2023-02-22T14:56:23.109Z,13.05
2023-02-22T14:59:16.828Z,12.70
2023-02-22T15:02:01.599Z,13.32
2023-02-22T15:04:34.978Z,12.70
2023-02-22T15:07:30.429Z,12.65
2023-02-22T15:10:17.887Z,13.40
2023-02-22T15:13:08.667Z,12.50
2023-02-22T15:15:48.324Z,12.75
2023-02-22T15:18:43.104Z,13.95
2023-02-22T15:21:17.489Z,13.13
2023-02-22T15:23:50.405Z,13.18
2023-02-22T15:26:37.442Z,13.02
2023-02-22T15:29:18.106Z,13.25
2023-02-22T15:31:48.300Z,14.15
2023-02-22T15:34:15.529Z,13.80
2023-02-22T15:36:46.440Z,15.63
2023-02-22T15:39:43.945Z,16.08
2023-02-22T15:42:20.961Z,15.88
2023-02-22T15:44:52.464Z,17.38
2023-02-22T15:47:25.348Z,17.25
2023-02-22T15:50:30.318Z,18.35
2023-02-22T15:53:07.824Z,19.23
2023-02-22T15:55:42.046Z,18.23
2023-02-22T15:58:19.279Z,18.57
2023-02-22T16:00:59.648Z,19.77
2023-02-22T16:03:29.465Z,19.20
2023-02-22T16:05:58.489Z,20.10
2023-02-22T16:08:55.246Z,19.02
2023-02-22T16:11:40.470Z,18.85
2023-02-22T16:14:30.234Z,19.25
2023-02-22T16:17:37.796Z,18.80
2023-02-22T16:20:14.547Z,18.60
2023-02-22T16:23:02.012Z,19.00
2023-02-22T16:25:37.372Z,18.50
2023-02-22T16:28:35.607Z,19.70
2023-02-22T16:31:03.548Z,18.67
2023-02-22T16:33:33.832Z,19.93
2023-02-22T16:36:08.167Z,21.07
2023-02-22T16:38:38.473Z,20.37
2023-02-22T16:41:10.274Z,21.13
2023-02-22T16:43:37.482Z,21.40
2023-02-22T16:46:06.982Z,21.90
2023-02-22T16:48:38.275Z,22.75
2023-02-22T16:51:39.772Z,22.27
2023-02-22T16:54:11.990Z,21.43
2023-02-22T16:56:40.616Z,21.60
2023-02-22T16:59:15.204Z,21.83
2023-02-22T17:01:43.453Z,23.87
2023-02-22T17:04:24.117Z,23.73
2023-02-22T17:06:51.217Z,23.45
2023-02-22T17:09:20.213Z,23.10
2023-02-22T17:11:51.229Z,22.80
2023-02-22T17:14:27.619Z,22.37
2023-02-22T17:16:54.860Z,22.90
2023-02-22T17:19:25.254Z,23.77
2023-02-22T17:21:55.422Z,24.37
2023-02-22T17:24:24.837Z,24.52
2023-02-22T17:26:53.199Z,25.47
2023-02-22T17:29:20.637Z,24.10
2023-02-22T17:31:48.989Z,25.90
2023-02-22T17:34:17.870Z,24.37
2023-02-22T17:36:44.921Z,26.58
2023-02-22T17:39:13.458Z,25.73
2023-02-22T17:41:41.042Z,27.10
2023-02-22T17:44:08.643Z,26.67
2023-02-22T17:46:37.434Z,26.57
2023-02-22T17:49:04.688Z,26.35
2023-02-22T17:51:31.968Z,27.83
2023-02-22T17:53:59.006Z,27.07
2023-02-22T17:56:26.095Z,27.90
2023-02-22T17:58:55.245Z,27.73
2023-02-22T18:01:29.308Z,28.27
2023-02-22T18:04:02.124Z,28.40
2023-02-22T18:06:32.836Z,29.43
2023-02-22T18:09:01.000Z,29.47
2023-02-22T18:11:32.511Z,28.77
2023-02-22T18:13:59.807Z,30.27
2023-02-22T18:16:27.654Z,30.47
2023-02-22T18:18:56.124Z,29.60
2023-02-22T18:21:24.061Z,31.23
2023-02-22T18:23:51.245Z,33.50
2023-02-22T18:26:21.906Z,33.97
2023-02-22T18:28:49.703Z,35.00
2023-02-22T18:31:20.313Z,34.70
2023-02-22T18:33:51.156Z,33.93
2023-02-22T18:36:23.621Z,38.17
2023-02-22T18:38:53.709Z,37.07
2023-02-22T18:41:25.415Z,38.27
2023-02-22T18:43:55.315Z,38.30
2023-02-22T18:46:24.509Z,35.93
2023-02-22T18:48:56.571Z,36.90
2023-02-22T18:51:25.646Z,35.90
2023-02-22T18:53:59.921Z,35.10
2023-02-22T18:56:30.097Z,36.00
2023-02-22T18:59:00.955Z,36.27
2023-02-22T19:01:29.295Z,35.17
2023-02-22T19:03:56.941Z,37.67
2023-02-22T19:06:24.378Z,37.43
2023-02-22T19:08:52.095Z,38.33
2023-02-22T19:11:23.438Z,38.20
2023-02-22T19:13:54.067Z,39.00
2023-02-22T19:16:27.088Z,36.17
2023-02-22T19:18:57.892Z,37.40
2023-02-22T19:21:30.009Z,37.00
2023-02-22T19:23:57.118Z,37.17
2023-02-22T19:26:26.603Z,36.53
2023-02-22T19:28:56.312Z,36.00
2023-02-22T19:31:31.464Z,36.80
2023-02-22T19:34:11.104Z,34.50
2023-02-22T19:36:41.363Z,36.20
2023-02-22T19:39:09.006Z,35.33
2023-02-22T19:41:36.446Z,33.07
2023-02-22T19:44:04.321Z,33.70
2023-02-22T19:46:32.499Z,32.57
2023-02-22T19:49:00.898Z,32.53
2023-02-22T19:51:30.515Z,33.33
2023-02-22T19:54:06.988Z,30.07
2023-02-22T19:56:35.642Z,31.17
2023-02-22T19:59:09.502Z,29.47
2023-02-22T20:01:37.266Z,28.43
2023-02-22T20:04:08.617Z,28.60
2023-02-22T20:06:41.815Z,28.43
2023-02-22T20:09:14.494Z,29.20
2023-02-22T20:11:41.710Z,28.13
2023-02-22T20:14:08.754Z,27.67
2023-02-22T20:16:36.105Z,28.00
2023-02-22T20:19:04.057Z,26.70
2023-02-22T20:21:34.078Z,27.03
2023-02-22T20:24:06.757Z,27.37
2023-02-22T20:26:36.793Z,26.00
2023-02-22T20:29:06.092Z,27.60
2023-02-22T20:31:33.868Z,26.07
2023-02-22T20:34:02.140Z,26.67
2023-02-22T20:36:30.890Z,27.03
2023-02-22T20:39:00.516Z,26.70
2023-02-22T20:41:33.342Z,28.23
2023-02-22T20:44:02.395Z,27.33
2023-02-22T20:46:36.144Z,28.13
2023-02-22T20:49:07.409Z,28.50
2023-02-22T20:51:35.487Z,29.50
2023-02-22T20:54:15.342Z,28.00
2023-02-22T20:56:45.139Z,28.40
2023-02-22T20:59:18.781Z,27.47
2023-02-22T21:01:55.465Z,28.30
2023-02-22T21:04:22.917Z,29.97
2023-02-22T21:06:51.996Z,29.33
2023-02-22T21:09:21.131Z,28.37
2023-02-22T21:11:49.104Z,29.23
2023-02-22T21:14:20.882Z,28.87
2023-02-22T21:16:51.021Z,27.27
2023-02-22T21:19:30.695Z,28.40
2023-02-22T21:22:01.361Z,28.03
2023-02-22T21:24:29.344Z,29.07
2023-02-22T21:26:58.953Z,29.17
2023-02-22T21:29:28.283Z,28.47
2023-02-22T21:31:56.153Z,27.83
2023-02-22T21:34:23.625Z,27.97
2023-02-22T21:36:52.470Z,27.17
2023-02-22T21:39:19.686Z,27.40
2023-02-22T21:41:51.883Z,27.57
2023-02-22T21:44:19.392Z,26.33
2023-02-22T21:46:50.530Z,27.67
2023-02-22T21:49:18.484Z,27.97
2023-02-22T21:51:45.554Z,26.27
2023-02-22T21:54:13.653Z,27.70
2023-02-22T21:56:43.032Z,27.50
2023-02-22T21:59:19.021Z,27.47
2023-02-22T22:01:50.289Z,27.67
2023-02-22T22:04:34.977Z,26.23
2023-02-22T22:07:04.386Z,26.83
2023-02-22T22:09:33.284Z,25.97
2023-02-22T22:12:04.994Z,25.20
2023-02-22T22:14:34.080Z,26.23
2023-02-22T22:17:02.711Z,26.50
2023-02-22T22:19:34.255Z,25.47
2023-02-22T22:22:02.773Z,26.63
2023-02-22T22:24:29.816Z,25.43
2023-02-22T22:26:56.848Z,26.17
2023-02-22T22:29:28.465Z,26.77
2023-02-22T22:31:56.755Z,26.97
2023-02-22T22:34:29.408Z,24.10
2023-02-22T22:37:00.099Z,25.77
2023-02-22T22:39:27.703Z,24.67
2023-02-22T22:41:57.426Z,24.83
2023-02-22T22:44:32.797Z,25.73
2023-02-22T22:47:00.355Z,25.23
2023-02-22T22:49:29.369Z,24.37
2023-02-22T22:51:56.388Z,23.67
2023-02-22T22:54:23.981Z,25.73
2023-02-22T22:56:51.173Z,27.10
2023-02-22T22:59:18.529Z,25.70
2023-02-22T23:01:45.580Z,26.33
2023-02-22T23:04:18.409Z,26.40
2023-02-22T23:06:51.884Z,25.33
2023-02-22T23:09:25.687Z,26.53
2023-02-22T23:12:08.968Z,26.03
2023-02-22T23:14:39.667Z,25.07
2023-02-22T23:17:14.354Z,24.83
2023-02-22T23:19:44.905Z,26.63
2023-02-22T23:22:14.505Z,27.10
2023-02-22T23:24:44.508Z,27.33
2023-02-22T23:27:12.334Z,27.23
2023-02-22T23:29:42.429Z,25.83
2023-02-22T23:32:09.845Z,26.47
2023-02-22T23:34:41.111Z,25.43
2023-02-22T23:37:10.665Z,27.40
2023-02-22T23:39:38.589Z,25.77
2023-02-22T23:42:08.840Z,27.50
2023-02-22T23:44:36.193Z,27.27
2023-02-22T23:47:03.873Z,26.37
2023-02-22T23:49:35.937Z,26.30
2023-02-22T23:52:09.406Z,27.80
2023-02-22T23:54:43.744Z,27.97
2023-02-22T23:57:11.339Z,27.20
2023-02-22T23:59:41.282Z,28.23
